Nederlandse vliegveldverwachtingen (TAF)

Luchtvaartmeteorologische informatie voor operationeel gebruik en vluchtvoorbereiding is beschikbaar op www.luchtvaartmeteo.nl.

ZCZC
FC110900 EHWO RRE WOENSDRECHT/WOENSDRECHT   NLD   19 m.
TAF EHWO 110911Z 1110/1122 21007KT 9999 SCT006 BKN025
    BECMG 1111/1113 SCT014
    PROB30 TEMPO 1117/1122 4000 SHRA SCT015CB BKN020=

ZCZC
FC112100 EHGR AAB GILZE-RIJEN/GILZE-RIJEN   NLD   14 m.
TAF AMD EHGR 112208Z 1122/1206 CNL=

ZCZC
FT112300 EHAM     AMSTERDAM/SCHIPHOL   NLD   -3 m.
TAF COR EHAM 112318Z 1200/1306 18010KT 9999 SCT012 BKN017
    BECMG 1202/1204 26010KT SCT025
    BECMG 1206/1209 20008KT
    BECMG 1212/1215 17015G25KT
    BECMG 1215/1218 BKN014
    TEMPO 1219/1224 15020G30KT
    BECMG 1220/1223 6000 RA SCT004 BKN007
    BECMG 1223/1302 15012KT 3000 RADZ BR BKN004
    BECMG 1302/1305 14007KT=

ZCZC
FT112300 EHBK     MAASTRICHT/MAASTRICHT-AACHEN   NLD   114 m.
TAF EHBK 112315Z 1200/1306 21010KT 9999 SCT040
    BECMG 1200/1203 7000 -RADZ BKN012
    PROB30 TEMPO 1202/1208 4000 RADZ BKN006
    BECMG 1207/1210 9999 NSW SCT035
    BECMG 1212/1215 18014KT
    BECMG 1219/1222 18016G26KT 7000 RA
    BECMG 1223/1302 18012KT 9999 NSW
    PROB40 TEMPO 1304/1306 7000 RA=

ZCZC
FT112300 EHLE     LELYSTAD/LELYSTAD   NLD   -3 m.
TAF EHLE 112315Z 1200/1306 18010KT 6000 BKN008
    BECMG 1203/1206 22010KT 9999 SCT012 BKN018
    BECMG 1208/1211 19012KT SCT025
    BECMG 1215/1218 16017G27KT
    BECMG 1221/1224 5000 RA -RASN SCT004 BKN007
    BECMG 1223/1302 15010KT 3000 RADZ BKN004=

ZCZC
FT112300 EHRD     ROTTERDAM/THE HAGUE AIRPORT   NLD   -5 m.
TAF EHRD 112315Z 1200/1306 18010KT 9999 SCT025
    BECMG 1200/1203 24010KT
    BECMG 1206/1209 20008KT
    BECMG 1213/1216 17015G25KT
    TEMPO 1218/1222 16020G30KT
    BECMG 1219/1222 6000 RA SCT004 BKN007
    BECMG 1222/1301 20008KT 3000 RADZ BKN004
    BECMG 1303/1306 12005KT=

ZCZC
FT112300 EHEH     EINDHOVEN/EINDHOVEN   NLD   22 m.
TAF EHEH 112348Z 1200/1306 19007KT 9999 BKN018 OVC025
    TEMPO 1201/1211 SCT008 BKN012
    PROB30 TEMPO 1201/1206 4000 -RADZ BKN006 OVC012
    BECMG 1209/1211 BKN030
    BECMG 1210/1213 17012KT
    BECMG 1216/1218 17015G25KT
    BECMG 1220/1223 4000 -RADZ BKN015 OVC035
    TEMPO 1222/1302 2500 RADZ SCT008 BKN012 OVC015
    BECMG 1300/1303 18010KT
    TEMPO 1303/1306 4500 RA SHRA SCT010 BKN017CB BKN022=

ZCZC
FT112300 EHGG AAA GRONINGEN/EELDE   NLD   5 m.
TAF AMD EHGG 120207Z 1202/1306 19008KT 8000 BKN012
    PROB40 TEMPO 1202/1208 5000 BR BKN006
    BECMG 1207/1210 22010KT SCT030
    BECMG 1212/1215 18012KT
    BECMG 1218/1221 15016G26KT
    BECMG 1222/1301 6000 -RASN BKN012
    TEMPO 1301/1306 4000 RASN BKN006
    PROB30 TEMPO 1301/1306 2000 SNRA BKN003
    BECMG 1303/1306 15010KT=

ZCZC
FC120100 EHKD RRA DE KOOY/DE KOOY   NLD   1 m.
TAF EHKD 120112Z 1202/1214 19008KT 9999 SCT020 BKN030
    TEMPO 1202/1206 27012G22KT 3000 SHRA RA FEW008 SCT012
    BKN015=

ZCZC
FC120100 EHLW RRB LEEUWARDEN/LEEUWARDEN   NLD   1 m.
TAF EHLW 120118Z 1202/1214 19010KT 6000 BKN007 OVC025
    TEMPO 1202/1207 3000 SHRA RA SCT007 BKN015
    BECMG 1204/1207 FEW012 SCT020 BKN025=

ZCZC
FC120100 EHVK RRC VOLKEL/VOLKEL   NLD   21 m.
TAF EHVK 120124Z 1202/1214 19007KT 9999 SCT012 OVC017
    PROB30 TEMPO 1203/1206 4000 -RADZ BKN006 OVC012
    PROB40 1204/1211 SCT008 BKN012
    BECMG 1208/1211 BKN020
    BECMG 1212/1214 16014KT=

12/12/2019 03.15 uur LT